createdAt,value
2022-10-07T00:02:07.600Z,64.70
2022-10-07T00:04:34.362Z,64.61
2022-10-07T00:07:01.060Z,64.69
2022-10-07T00:09:27.641Z,64.99
2022-10-07T00:11:54.944Z,64.90
2022-10-07T00:14:21.454Z,65.09
2022-10-07T00:16:48.025Z,64.93
2022-10-07T00:19:14.569Z,64.93
2022-10-07T00:21:41.343Z,65.15
2022-10-07T00:24:08.724Z,65.01
2022-10-07T00:26:36.887Z,64.95
2022-10-07T00:29:07.130Z,65.05
2022-10-07T00:31:35.995Z,65.01
2022-10-07T00:34:04.357Z,64.74
2022-10-07T00:36:33.738Z,64.77
2022-10-07T00:39:03.680Z,64.95
2022-10-07T00:41:37.570Z,65.05
2022-10-07T00:44:32.188Z,65.02
2022-10-07T00:47:20.163Z,65.14
2022-10-07T00:50:20.654Z,64.93
2022-10-07T00:53:13.348Z,65.22
2022-10-07T00:55:40.202Z,65.28
2022-10-07T00:58:09.385Z,65.29
2022-10-07T01:00:37.681Z,65.17
2022-10-07T01:03:04.906Z,65.13
2022-10-07T01:05:32.881Z,65.35
2022-10-07T01:08:00.053Z,65.46
2022-10-07T01:10:34.606Z,65.29
2022-10-07T01:13:05.486Z,65.44
2022-10-07T01:16:01.353Z,65.29
2022-10-07T01:18:49.634Z,65.18
2022-10-07T01:21:26.694Z,65.22
2022-10-07T01:24:20.131Z,65.55
2022-10-07T01:27:19.935Z,65.41
2022-10-07T01:29:56.023Z,65.47
2022-10-07T01:32:32.098Z,65.60
2022-10-07T01:35:02.834Z,65.46
2022-10-07T01:37:35.883Z,65.53
2022-10-07T01:40:09.791Z,65.65
2022-10-07T01:42:36.781Z,65.73
2022-10-07T01:45:04.915Z,65.60
2022-10-07T01:47:31.586Z,65.51
2022-10-07T01:49:58.077Z,65.34
2022-10-07T01:52:43.121Z,65.53
2022-10-07T01:55:20.288Z,65.35
2022-10-07T01:58:27.915Z,65.65
2022-10-07T02:01:06.256Z,65.20
2022-10-07T02:03:45.706Z,65.43
2022-10-07T02:06:42.541Z,65.52
2022-10-07T02:09:29.380Z,65.50
2022-10-07T02:12:12.880Z,65.68
2022-10-07T02:14:51.060Z,65.79
2022-10-07T02:17:24.833Z,65.56
2022-10-07T02:19:56.468Z,65.47
2022-10-07T02:22:28.401Z,65.57
2022-10-07T02:24:59.143Z,65.63
2022-10-07T02:27:33.050Z,65.93
2022-10-07T02:30:04.609Z,65.69
2022-10-07T02:32:34.545Z,65.89
2022-10-07T02:35:13.178Z,65.96
2022-10-07T02:37:42.778Z,65.80
2022-10-07T02:40:12.078Z,65.90
2022-10-07T02:43:11.886Z,65.90
2022-10-07T02:45:46.126Z,65.88
2022-10-07T02:48:21.934Z,65.81
2022-10-07T02:50:53.768Z,65.92
2022-10-07T02:53:21.482Z,65.81
2022-10-07T02:55:50.617Z,65.83
2022-10-07T02:58:20.137Z,65.90
2022-10-07T03:00:52.904Z,65.90
2022-10-07T03:03:20.582Z,65.83
2022-10-07T03:05:58.438Z,65.67
2022-10-07T03:08:25.710Z,65.90
2022-10-07T03:10:52.642Z,65.77
2022-10-07T03:13:19.293Z,66.00
2022-10-07T03:15:52.065Z,65.96
2022-10-07T03:18:28.066Z,66.00
2022-10-07T03:21:04.658Z,66.17
2022-10-07T03:23:31.605Z,66.09
2022-10-07T03:25:59.567Z,65.84
2022-10-07T03:28:29.069Z,65.84
2022-10-07T03:31:04.771Z,65.86
2022-10-07T03:33:31.342Z,66.13
2022-10-07T03:35:58.433Z,66.07
2022-10-07T03:38:25.138Z,66.04
2022-10-07T03:40:51.898Z,66.16
2022-10-07T03:43:18.893Z,66.25
2022-10-07T03:45:50.090Z,66.08
2022-10-07T03:48:16.837Z,66.01
2022-10-07T03:50:53.783Z,66.08
2022-10-07T03:53:23.069Z,66.15
2022-10-07T03:55:49.840Z,66.10
2022-10-07T03:58:16.717Z,66.09
2022-10-07T04:00:44.408Z,66.09
2022-10-07T04:03:11.683Z,66.07
2022-10-07T04:05:38.476Z,66.04
2022-10-07T04:08:06.008Z,66.28
2022-10-07T04:10:33.683Z,65.99
2022-10-07T04:13:00.745Z,65.81
2022-10-07T04:15:27.946Z,66.08
2022-10-07T04:17:58.573Z,65.97
2022-10-07T04:20:26.386Z,66.01
2022-10-07T04:22:54.294Z,65.80
2022-10-07T04:25:37.666Z,65.69
2022-10-07T04:28:16.722Z,65.55
2022-10-07T04:30:45.134Z,65.91
2022-10-07T04:33:13.638Z,65.89
2022-10-07T04:35:41.040Z,65.70
2022-10-07T04:38:10.496Z,66.01
2022-10-07T04:40:45.217Z,65.79
2022-10-07T04:43:26.886Z,65.75
2022-10-07T04:46:07.083Z,65.96
2022-10-07T04:48:36.957Z,66.02
2022-10-07T04:51:07.808Z,66.02
2022-10-07T04:53:36.918Z,66.06
2022-10-07T04:56:05.169Z,65.69
2022-10-07T04:58:33.390Z,65.73
2022-10-07T05:01:02.219Z,65.50
2022-10-07T05:03:29.847Z,65.35
2022-10-07T05:06:06.044Z,65.16
2022-10-07T05:08:34.173Z,64.88
2022-10-07T05:11:02.069Z,65.04
2022-10-07T05:13:34.274Z,64.95
2022-10-07T05:16:03.327Z,65.06
2022-10-07T05:18:30.996Z,65.03
2022-10-07T05:21:07.410Z,64.86
2022-10-07T05:23:37.481Z,65.06
2022-10-07T05:26:10.499Z,64.96
2022-10-07T05:28:41.732Z,65.08
2022-10-07T05:31:14.789Z,65.14
2022-10-07T05:33:46.124Z,65.19
2022-10-07T05:36:13.030Z,65.35
2022-10-07T05:38:40.063Z,65.20
2022-10-07T05:41:09.739Z,65.04
2022-10-07T05:43:42.325Z,65.25
2022-10-07T05:46:18.209Z,65.28
2022-10-07T05:48:52.207Z,65.23
2022-10-07T05:51:23.074Z,64.99
2022-10-07T05:53:57.038Z,65.33
2022-10-07T05:56:29.459Z,65.15
2022-10-07T05:58:57.330Z,65.21
2022-10-07T06:01:28.373Z,65.28
2022-10-07T06:03:57.855Z,65.34
2022-10-07T06:06:27.452Z,65.59
2022-10-07T06:09:15.880Z,65.71
2022-10-07T06:12:01.544Z,65.71
2022-10-07T06:14:28.326Z,65.93
2022-10-07T06:16:54.985Z,66.34
2022-10-07T06:19:24.602Z,66.41
2022-10-07T06:21:54.569Z,66.69
2022-10-07T06:24:21.208Z,66.97
2022-10-07T06:26:48.609Z,67.01
2022-10-07T06:29:16.213Z,67.04
2022-10-07T06:31:42.961Z,67.30
2022-10-07T06:34:09.755Z,67.49
2022-10-07T06:36:37.146Z,67.61
2022-10-07T06:39:04.232Z,67.61
2022-10-07T06:41:36.502Z,68.00
2022-10-07T06:44:27.378Z,67.81
2022-10-07T06:46:55.778Z,68.14
2022-10-07T06:49:22.724Z,68.19
2022-10-07T06:51:51.109Z,68.36
2022-10-07T06:54:18.253Z,68.52
2022-10-07T06:56:45.029Z,68.56
2022-10-07T06:59:11.734Z,68.68
2022-10-07T07:01:47.252Z,68.89
2022-10-07T07:04:14.573Z,69.10
2022-10-07T07:06:41.549Z,69.26
2022-10-07T07:09:08.945Z,69.56
2022-10-07T07:11:40.840Z,69.36
2022-10-07T07:14:20.038Z,69.34
2022-10-07T07:16:57.437Z,69.44
2022-10-07T07:19:25.711Z,69.37
2022-10-07T07:21:52.285Z,69.48
2022-10-07T07:24:21.550Z,69.40
2022-10-07T07:26:48.624Z,69.72
2022-10-07T07:29:16.549Z,69.58
2022-10-07T07:32:04.394Z,69.41
2022-10-07T07:34:36.316Z,69.58
2022-10-07T07:37:03.996Z,69.51
2022-10-07T07:39:36.850Z,69.24
2022-10-07T07:42:10.393Z,69.51
2022-10-07T07:44:38.881Z,69.62
2022-10-07T07:47:09.136Z,69.75
2022-10-07T07:49:36.535Z,69.66
2022-10-07T07:52:04.362Z,69.70
2022-10-07T07:54:41.424Z,69.65
2022-10-07T07:57:08.635Z,69.65
2022-10-07T07:59:37.377Z,69.46
2022-10-07T08:02:06.146Z,69.42
2022-10-07T08:04:34.297Z,69.55
2022-10-07T08:07:01.458Z,69.51
2022-10-07T08:09:28.884Z,69.39
2022-10-07T08:11:57.494Z,69.38
2022-10-07T08:14:24.273Z,69.34
2022-10-07T08:16:55.535Z,69.55
2022-10-07T08:19:22.155Z,69.38
2022-10-07T08:21:48.828Z,69.70
2022-10-07T08:24:22.074Z,69.56
2022-10-07T08:26:48.645Z,69.63
2022-10-07T08:29:17.995Z,69.66
2022-10-07T08:31:45.560Z,69.40
2022-10-07T08:34:12.618Z,69.80
2022-10-07T08:36:39.713Z,69.49
2022-10-07T08:39:06.951Z,69.42
2022-10-07T08:41:51.253Z,69.39
2022-10-07T08:44:23.625Z,69.52
2022-10-07T08:47:16.180Z,69.41
2022-10-07T08:49:58.346Z,69.38
2022-10-07T08:52:28.183Z,69.50
2022-10-07T08:54:55.193Z,69.54
2022-10-07T08:58:06.409Z,69.23
2022-10-07T09:00:43.828Z,69.33
2022-10-07T09:03:25.597Z,69.33
2022-10-07T09:05:55.792Z,69.32
2022-10-07T09:08:28.753Z,69.45
2022-10-07T09:11:00.892Z,69.14
2022-10-07T09:13:33.649Z,69.06
2022-10-07T09:16:16.475Z,69.04
2022-10-07T09:18:50.845Z,69.06
2022-10-07T09:21:25.460Z,68.79
2022-10-07T09:23:57.009Z,68.90
2022-10-07T09:26:26.961Z,69.04
2022-10-07T09:28:53.873Z,69.02
2022-10-07T09:31:24.256Z,68.85
2022-10-07T09:33:52.967Z,68.79
2022-10-07T09:36:20.189Z,68.89
2022-10-07T09:38:50.010Z,68.73
2022-10-07T09:41:29.069Z,68.72
2022-10-07T09:44:06.559Z,68.56
2022-10-07T09:46:35.838Z,68.54
2022-10-07T09:49:04.485Z,68.62
2022-10-07T09:51:32.724Z,68.74
2022-10-07T09:54:17.633Z,68.48
2022-10-07T09:56:47.469Z,68.31
2022-10-07T09:59:20.255Z,68.69
2022-10-07T10:01:52.579Z,68.47
2022-10-07T10:04:23.572Z,68.34
2022-10-07T10:06:51.977Z,68.46
2022-10-07T10:09:25.838Z,68.24
2022-10-07T10:12:15.241Z,68.23
2022-10-07T10:14:58.137Z,68.07
2022-10-07T10:17:29.783Z,68.24
2022-10-07T10:20:39.683Z,68.09
2022-10-07T10:23:25.012Z,68.04
2022-10-07T10:26:33.338Z,67.84
2022-10-07T10:29:22.452Z,67.93
2022-10-07T10:32:21.428Z,68.15
2022-10-07T10:35:07.859Z,67.94
2022-10-07T10:37:40.569Z,68.21
2022-10-07T10:40:13.495Z,68.63
2022-10-07T10:42:50.738Z,68.20
2022-10-07T10:45:35.936Z,67.90
2022-10-07T10:48:39.302Z,67.65
2022-10-07T10:51:23.913Z,67.52
2022-10-07T10:54:26.636Z,67.63
2022-10-07T10:57:31.705Z,67.35
2022-10-07T11:00:18.999Z,67.38
2022-10-07T11:03:31.291Z,67.06
2022-10-07T11:06:03.754Z,67.20
2022-10-07T11:08:38.155Z,67.03
2022-10-07T11:11:15.943Z,66.90
2022-10-07T11:13:56.098Z,66.67
2022-10-07T11:16:28.871Z,66.81
2022-10-07T11:19:01.601Z,66.50
2022-10-07T11:21:34.701Z,66.62
2022-10-07T11:24:15.242Z,66.32
2022-10-07T11:26:47.606Z,66.43
2022-10-07T11:29:20.152Z,66.27
2022-10-07T11:32:04.895Z,66.13
2022-10-07T11:34:44.069Z,65.81
2022-10-07T11:37:27.312Z,65.72
2022-10-07T11:39:54.181Z,65.91
2022-10-07T11:42:28.828Z,65.57
2022-10-07T11:45:01.749Z,65.73
2022-10-07T11:47:35.113Z,65.57
2022-10-07T11:50:09.212Z,65.36
2022-10-07T11:52:42.411Z,65.46
2022-10-07T11:55:19.929Z,65.30
2022-10-07T11:57:54.208Z,65.40
2022-10-07T12:00:35.794Z,65.15
2022-10-07T12:03:17.602Z,65.03
2022-10-07T12:05:50.429Z,65.31
2022-10-07T12:08:33.962Z,64.95
2022-10-07T12:11:12.679Z,64.94
2022-10-07T12:13:43.796Z,65.19
2022-10-07T12:16:31.324Z,65.03
2022-10-07T12:19:06.189Z,64.90
2022-10-07T12:21:57.139Z,64.76
2022-10-07T12:24:23.710Z,64.91
2022-10-07T12:26:51.130Z,64.80
2022-10-07T12:29:32.977Z,64.37
2022-10-07T12:32:00.117Z,64.60
2022-10-07T12:34:41.391Z,64.22
2022-10-07T12:37:44.301Z,64.37
2022-10-07T12:40:31.686Z,64.39
2022-10-07T12:43:11.492Z,64.35
2022-10-07T12:45:44.229Z,64.07
2022-10-07T12:48:18.269Z,64.19
2022-10-07T12:50:47.355Z,64.50
2022-10-07T12:53:14.314Z,64.36
2022-10-07T12:55:48.287Z,64.32
2022-10-07T12:58:39.417Z,64.22
2022-10-07T13:01:19.021Z,64.34
2022-10-07T13:03:55.027Z,64.08
2022-10-07T13:06:53.720Z,64.03
2022-10-07T13:09:40.093Z,64.12
2022-10-07T13:12:20.016Z,64.19
2022-10-07T13:14:55.534Z,64.18
2022-10-07T13:17:51.525Z,63.92
2022-10-07T13:20:38.758Z,63.82
2022-10-07T13:23:13.887Z,63.69
2022-10-07T13:25:54.343Z,63.61
2022-10-07T13:28:24.765Z,63.73
2022-10-07T13:30:53.126Z,64.03
2022-10-07T13:33:26.485Z,63.71
2022-10-07T13:36:16.814Z,63.56
2022-10-07T13:38:48.467Z,63.35
2022-10-07T13:41:27.565Z,63.49
2022-10-07T13:44:03.783Z,63.25
2022-10-07T13:46:32.754Z,63.18
2022-10-07T13:49:01.056Z,63.08
2022-10-07T13:51:32.731Z,62.97
2022-10-07T13:54:02.750Z,62.98
2022-10-07T13:56:39.781Z,63.36
2022-10-07T13:59:08.325Z,63.09
2022-10-07T14:01:40.100Z,62.66
2022-10-07T14:04:31.452Z,63.03
2022-10-07T14:07:11.328Z,63.09
2022-10-07T14:10:00.150Z,63.08
2022-10-07T14:12:47.827Z,63.13
2022-10-07T14:15:19.585Z,63.00
2022-10-07T14:18:07.180Z,62.95
2022-10-07T14:20:43.738Z,62.91
2022-10-07T14:23:28.320Z,63.16
2022-10-07T14:25:56.198Z,63.46
2022-10-07T14:28:22.930Z,63.15
2022-10-07T14:31:30.198Z,63.01
2022-10-07T14:34:15.074Z,62.80
2022-10-07T14:37:05.110Z,63.04
2022-10-07T14:39:38.681Z,62.99
2022-10-07T14:42:11.388Z,62.86
2022-10-07T14:44:38.287Z,62.88
2022-10-07T14:47:27.959Z,62.63
2022-10-07T14:49:56.481Z,62.62
2022-10-07T14:52:29.301Z,62.86
2022-10-07T14:54:57.740Z,62.92
2022-10-07T14:57:27.560Z,62.84
2022-10-07T14:59:54.617Z,62.92
2022-10-07T15:02:21.108Z,62.77
2022-10-07T15:04:48.349Z,62.69
2022-10-07T15:07:16.347Z,62.48
2022-10-07T15:09:44.762Z,62.73
2022-10-07T15:12:12.778Z,62.61
2022-10-07T15:14:39.545Z,62.73
2022-10-07T15:17:06.483Z,62.76
2022-10-07T15:19:33.529Z,62.84
2022-10-07T15:22:01.197Z,62.74
2022-10-07T15:24:29.124Z,62.80
2022-10-07T15:26:55.742Z,62.69
2022-10-07T15:29:22.461Z,62.80
2022-10-07T15:31:49.317Z,62.78
2022-10-07T15:34:15.988Z,62.82
2022-10-07T15:36:43.228Z,62.88
2022-10-07T15:39:10.107Z,62.79
2022-10-07T15:41:43.623Z,62.99
2022-10-07T15:44:17.551Z,62.91
2022-10-07T15:46:45.937Z,62.89
2022-10-07T15:49:12.536Z,62.88
2022-10-07T15:51:39.423Z,63.02
2022-10-07T15:54:07.117Z,62.92
2022-10-07T15:56:34.377Z,62.96
2022-10-07T15:59:02.050Z,62.92
2022-10-07T16:01:32.075Z,62.96
2022-10-07T16:04:00.541Z,62.89
2022-10-07T16:06:32.221Z,62.99
2022-10-07T16:08:59.156Z,62.87
2022-10-07T16:11:27.161Z,62.87
2022-10-07T16:13:53.795Z,62.93
2022-10-07T16:16:23.679Z,62.96
2022-10-07T16:18:51.964Z,63.00
2022-10-07T16:21:24.530Z,63.00
2022-10-07T16:23:55.139Z,63.03
2022-10-07T16:26:25.650Z,63.06
2022-10-07T16:29:11.805Z,63.19
2022-10-07T16:31:41.223Z,63.06
2022-10-07T16:34:09.939Z,63.09
2022-10-07T16:36:36.724Z,63.07
2022-10-07T16:39:05.099Z,62.97
2022-10-07T16:41:32.698Z,63.08
2022-10-07T16:44:00.265Z,63.04
2022-10-07T16:46:27.446Z,63.11
2022-10-07T16:48:54.674Z,62.93
2022-10-07T16:51:27.353Z,62.93
2022-10-07T16:53:56.199Z,62.78
2022-10-07T16:56:23.639Z,62.84
2022-10-07T16:58:57.132Z,62.78
2022-10-07T17:01:25.543Z,62.75
2022-10-07T17:03:52.777Z,62.67
2022-10-07T17:06:21.276Z,62.72
2022-10-07T17:08:48.958Z,62.66
2022-10-07T17:11:31.322Z,62.69
2022-10-07T17:14:02.318Z,62.73
2022-10-07T17:16:32.931Z,62.77
2022-10-07T17:19:00.079Z,62.74
2022-10-07T17:21:27.993Z,62.72
2022-10-07T17:23:58.269Z,62.72
2022-10-07T17:26:27.131Z,62.90
2022-10-07T17:28:58.812Z,62.75
2022-10-07T17:31:26.011Z,62.86
2022-10-07T17:33:52.620Z,62.87
2022-10-07T17:36:21.221Z,62.86
2022-10-07T17:38:47.769Z,62.89
2022-10-07T17:41:23.741Z,62.74
2022-10-07T17:43:56.332Z,62.88
2022-10-07T17:46:25.459Z,63.01
2022-10-07T17:48:54.550Z,63.17
2022-10-07T17:51:24.314Z,63.04
2022-10-07T17:53:51.133Z,63.25
2022-10-07T17:56:18.640Z,63.38
2022-10-07T17:58:47.031Z,63.36
2022-10-07T18:01:19.531Z,63.31
2022-10-07T18:03:51.385Z,63.34
2022-10-07T18:06:18.326Z,63.39
2022-10-07T18:08:44.976Z,63.41
2022-10-07T18:11:11.663Z,63.45
2022-10-07T18:13:56.723Z,63.63
2022-10-07T18:16:23.696Z,63.90
2022-10-07T18:18:56.857Z,63.53
2022-10-07T18:21:24.565Z,63.68
2022-10-07T18:23:55.586Z,63.69
2022-10-07T18:26:22.234Z,63.82
2022-10-07T18:28:49.429Z,63.90
2022-10-07T18:31:17.652Z,63.95
2022-10-07T18:33:46.001Z,63.91
2022-10-07T18:36:15.445Z,64.00
2022-10-07T18:38:43.764Z,63.86
2022-10-07T18:41:14.530Z,63.96
2022-10-07T18:43:42.677Z,63.79
2022-10-07T18:46:15.298Z,63.83
2022-10-07T18:48:43.521Z,64.01
2022-10-07T18:51:11.861Z,63.80
2022-10-07T18:53:40.685Z,63.63
2022-10-07T18:56:11.363Z,63.78
2022-10-07T18:58:40.575Z,63.82
2022-10-07T19:01:22.756Z,63.68
2022-10-07T19:03:55.374Z,63.75
2022-10-07T19:06:24.152Z,63.76
2022-10-07T19:08:55.045Z,63.69
2022-10-07T19:11:22.493Z,63.77
2022-10-07T19:13:51.991Z,63.77
2022-10-07T19:16:20.086Z,63.98
2022-10-07T19:18:48.537Z,64.08
2022-10-07T19:21:18.023Z,63.98
2022-10-07T19:23:44.835Z,64.09
2022-10-07T19:26:12.749Z,64.08
2022-10-07T19:28:40.127Z,64.00
2022-10-07T19:31:24.595Z,63.83
2022-10-07T19:34:01.290Z,63.91
2022-10-07T19:36:29.241Z,64.11
2022-10-07T19:38:56.296Z,63.98
2022-10-07T19:41:25.479Z,63.99
2022-10-07T19:43:52.106Z,64.09
2022-10-07T19:46:20.187Z,64.19
2022-10-07T19:48:47.041Z,63.99
2022-10-07T19:51:16.340Z,64.26
2022-10-07T19:53:47.090Z,63.95
2022-10-07T19:56:20.803Z,64.21
2022-10-07T19:58:52.022Z,64.33
2022-10-07T20:01:21.575Z,64.10
2022-10-07T20:03:49.424Z,64.04
2022-10-07T20:06:16.131Z,64.21
2022-10-07T20:08:45.133Z,64.38
2022-10-07T20:11:12.534Z,64.26
2022-10-07T20:13:39.947Z,64.20
2022-10-07T20:16:10.479Z,64.12
2022-10-07T20:18:37.962Z,64.48
2022-10-07T20:21:08.590Z,64.43
2022-10-07T20:23:37.653Z,64.49
2022-10-07T20:26:17.832Z,64.39
2022-10-07T20:28:49.847Z,64.58
2022-10-07T20:31:20.401Z,64.60
2022-10-07T20:33:49.806Z,64.70
2022-10-07T20:36:19.024Z,64.80
2022-10-07T20:39:03.953Z,64.82
2022-10-07T20:41:49.981Z,64.95
2022-10-07T20:44:17.599Z,64.77
2022-10-07T20:46:44.533Z,65.03
2022-10-07T20:49:22.818Z,64.62
2022-10-07T20:51:57.670Z,64.83
2022-10-07T20:54:25.776Z,64.99
2022-10-07T20:56:57.707Z,64.95
2022-10-07T20:59:25.291Z,64.77
2022-10-07T21:01:52.098Z,65.04
2022-10-07T21:04:18.754Z,64.95
2022-10-07T21:06:45.139Z,65.01
2022-10-07T21:09:12.006Z,64.97
2022-10-07T21:11:38.438Z,65.04
2022-10-07T21:14:04.943Z,64.62
2022-10-07T21:16:32.425Z,64.90
2022-10-07T21:18:58.965Z,64.90
2022-10-07T21:21:25.530Z,64.97
2022-10-07T21:23:52.786Z,65.26
2022-10-07T21:26:19.896Z,65.17
2022-10-07T21:28:48.285Z,65.30
2022-10-07T21:31:17.755Z,65.19
2022-10-07T21:33:50.919Z,65.15
2022-10-07T21:36:20.850Z,65.31
2022-10-07T21:38:53.012Z,65.44
2022-10-07T21:41:22.350Z,65.52
2022-10-07T21:43:53.849Z,65.31
2022-10-07T21:46:20.803Z,65.69
2022-10-07T21:48:47.958Z,65.50
2022-10-07T21:51:15.246Z,65.50
2022-10-07T21:53:41.974Z,65.58
2022-10-07T21:56:11.562Z,65.55
2022-10-07T21:58:38.118Z,65.66
2022-10-07T22:01:07.297Z,65.68
2022-10-07T22:03:34.465Z,65.44
2022-10-07T22:06:05.849Z,65.53
2022-10-07T22:08:36.940Z,65.50
2022-10-07T22:11:15.326Z,65.45
2022-10-07T22:13:44.441Z,65.56
2022-10-07T22:16:16.343Z,65.61
2022-10-07T22:18:50.708Z,65.49
2022-10-07T22:21:20.457Z,65.37
2022-10-07T22:23:55.312Z,65.34
2022-10-07T22:26:31.408Z,65.43
2022-10-07T22:28:58.354Z,65.60
2022-10-07T22:31:26.238Z,65.75
2022-10-07T22:33:55.203Z,65.74
2022-10-07T22:36:22.184Z,65.78
2022-10-07T22:38:48.626Z,65.80
2022-10-07T22:41:16.526Z,65.76
2022-10-07T22:43:45.133Z,65.81
2022-10-07T22:46:14.210Z,65.67
2022-10-07T22:48:43.368Z,66.04
2022-10-07T22:51:15.069Z,65.65
2022-10-07T22:53:44.705Z,65.82
2022-10-07T22:56:15.056Z,65.90
2022-10-07T22:58:43.446Z,65.76
2022-10-07T23:01:12.149Z,66.14
2022-10-07T23:03:39.821Z,65.97
2022-10-07T23:06:07.408Z,65.94
2022-10-07T23:08:38.786Z,66.02
2022-10-07T23:11:06.246Z,66.06
2022-10-07T23:13:34.065Z,66.10
2022-10-07T23:16:03.719Z,66.08
2022-10-07T23:18:30.710Z,66.13
2022-10-07T23:21:02.018Z,66.16
2022-10-07T23:23:30.032Z,66.27
2022-10-07T23:25:57.436Z,66.25
2022-10-07T23:28:25.984Z,66.17
2022-10-07T23:30:53.745Z,66.23
2022-10-07T23:33:21.295Z,66.45
2022-10-07T23:35:48.941Z,66.57
2022-10-07T23:38:18.020Z,66.52
2022-10-07T23:40:44.618Z,66.49
2022-10-07T23:43:12.426Z,66.50
2022-10-07T23:45:39.125Z,66.54
2022-10-07T23:48:05.651Z,66.66
2022-10-07T23:50:32.688Z,66.57
2022-10-07T23:52:59.597Z,66.71
2022-10-07T23:55:26.240Z,66.55
2022-10-07T23:57:53.331Z,66.44
